Observations for EDINBURGH AIRPORT, United Kingdom (EGPH)

EGPH 200620Z 28002KT CAVOK 07/07 Q1031  
EGPH 200550Z 33002KT CAVOK 05/05 Q1030  
EGPH 200520Z 00000KT 9000 NSC 05/05 Q1030   
EGPH 200450Z VRB01KT CAVOK 06/05 Q1030  
EGPH 200420Z 25001KT CAVOK 04/04 Q1031  
EGPH 200350Z 29002KT CAVOK 06/06 Q1031  
EGPH 200320Z VRB01KT CAVOK 06/06 Q1031  
EGPH 200250Z 00000KT CAVOK 06/06 Q1031  
EGPH 200220Z 31001KT CAVOK 07/07 Q1031  
EGPH 200150Z 00000KT CAVOK 08/07 Q1030  
EGPH 200120Z 00000KT CAVOK 08/07 Q1030  
EGPH 200050Z 34002KT CAVOK 08/07 Q1031  
EGPH 200020Z 35001KT CAVOK 09/08 Q1031  
EGPH 192350Z 36001KT CAVOK 09/08 Q1031  
EGPH 192320Z VRB01KT CAVOK 10/08 Q1031  
EGPH 192250Z VRB02KT CAVOK 09/07 Q1031  
EGPH 192220Z VRB02KT CAVOK 09/08 Q1030  
EGPH 192150Z 34002KT CAVOK 09/08 Q1030  
EGPH 192120Z 06004KT CAVOK 09/08 Q1030  
EGPH 192050Z 04002KT CAVOK 09/08 Q1030  
EGPH 192020Z 00000KT CAVOK 09/08 Q1030  
EGPH 191950Z 36001KT CAVOK 10/08 Q1030  
EGPH 191920Z 35001KT CAVOK 11/08 Q1030  
EGPH 191850Z 03001KT CAVOK 12/08 Q1030  
EGPH 191820Z 05003KT CAVOK 13/08 Q1030  
EGPH 191750Z 05004KT CAVOK 13/09 Q1030  
EGPH 191720Z 04004KT CAVOK 14/09 Q1029  
EGPH 191650Z 02005KT CAVOK 14/08 Q1029  
EGPH 191620Z 05006KT CAVOK 15/09 Q1030  
EGPH 191550Z 06006KT 030V090 CAVOK 15/09 Q1030  
EGPH 191520Z 06006KT CAVOK 15/09 Q1030  
EGPH 191450Z 04006KT 020V080 CAVOK 14/09 Q1030  
EGPH 191420Z 04007KT CAVOK 14/09 Q1030  
EGPH 191350Z 04009KT CAVOK 15/09 Q1030  
EGPH 191320Z 03008KT CAVOK 15/08 Q1030  
EGPH 191250Z 04009KT CAVOK 15/08 Q1030  
EGPH 191220Z 05011KT CAVOK 15/07 Q1030  
EGPH 191150Z 04010KT CAVOK 15/09 Q1031  
EGPH 191120Z 06009KT 030V090 CAVOK 14/08 Q1031  
EGPH 191050Z 07009KT CAVOK 14/08 Q1031  
EGPH 191020Z 07007KT CAVOK 13/08 Q1031  
EGPH 190950Z 06006KT 030V100 CAVOK 12/08 Q1031  
EGPH 190920Z 08006KT CAVOK 10/08 Q1032  
EGPH 190850Z 06007KT 040V100 9000 NSC 09/08 Q1032   
EGPH 190820Z 06007KT 030V100 9000 FEW007 09/08 Q1031
EGPH 190750Z 07008KT 8000 SCT006 08/08 Q1031
EGPH 190720Z 06006KT 7000 FEW005 08/08 Q1031
EGPH 190650Z 06005KT 7000 FEW005 08/08 Q1031
EGPH 190620Z 06004KT 6000 FEW005 06/06 Q1031
EGPH 190550Z 09003KT 5000 BR FEW005 06/06 Q1031